Terminal Aerodrome Forecast
Issued by NWS

Home | Current Version | Previous Version | Text Only | Print | Product List | Glossary On
Versions: 1 2 3 4 5 6 7 8 9 10 11 12
000
FTUS41 KLWX 211100
TAFMTN
TAF
KMTN 211121Z 2112/2212 VRB03KT P6SM FEW250
     FM211500 12008KT P6SM FEW250
     FM212300 17004KT P6SM FEW200=

USA.gov is the U.S. government's official web portal to all federal, state and local government web resources and services.